Kansas City Downtown, MO

4:13 PM CST on January 19, 2017 (GMT -0600)
Kansas City Downtown | | Change Station
Active Advisory: Dense Fog Advisory

Elev 758 ft 39.12 °N, 94.59 °W | Updated 19 minutes ago

Overcast
Overcast
50 °F
Feels Like 50 °F
N
5
Wind Variable Wind from South

Today
High -- | Low -- °F
--% Chance of Precip.
Yesterday
High -- | Low -- °F
Precip. -- in
Pressure 29.66 in
Visibility 10.0 miles
Clouds Overcast 1000 ft
Dew Point 46 °F
Humidity 86%
Rainfall 0.00 in
Snow Depth Not available.
7:34 AM 5:24 PM
Waning Gibbous, 50% visible
METAR KMKC 192154Z 18004KT 10SM OVC010 10/08 A2966 RMK AO2 SLP044 T01000078
Pressure 29.66 in
Visibility 10.0 miles
Clouds Overcast 1000 ft
Dew Point 46 °F
Humidity 86%
Rainfall 0.00 in
Snow Depth Not available.
7:34 AM 5:24 PM
Waning Gibbous, 50% visible
METAR KMKC 192154Z 18004KT 10SM OVC010 10/08 A2966 RMK AO2 SLP044 T01000078

Get Your Daily Forecast Email!

Thanks for signing up!

Be on the lookout for a verification email in your inbox.

You'll start receiving the daily forecast at 8 AM.

×

10-Day Weather Forecast

Almanac

Astronomy

Jan. 19, 2017 Rise Set
Actual Time
Civil Twilight
Nautical Twilight
Astronomical Twilight
Moon
Length of Visible Light
Length of Day
Tomorrow will be .
, % of the Moon is Illuminated

Today's Extremes

State Highs State Lows

Community

WunderPhotos

Upload Photos

1,962,540 photos uploaded!

WunderBlog® & News

Nearby

Air Quality

  Air Quality AQ Index Pollutant
Not available.

Snow Depth

Station Depth Elevation

Earthquake Activity

City Distance Mag. Time & Date
Minimum magnitude displayed is 2.5.

Coastal Water Temperatures

Place Temperature

Stations

Nearby Weather Stations

Station Location Temp. Windchill Dew Point Humidity Wind Precip. Elev Updated Type
                   

Watches & Warnings

Dense Fog Advisory
Issued: 3:07 PM CST Jan. 19, 2017 – National Weather Service

... Dense fog advisory in effect from midnight tonight to 10 am
CST Friday...

The National Weather Service in Kansas City/Pleasant Hill has
issued a dense fog advisory, which is in effect from midnight
tonight to 10 am CST Friday.

* Visibility... visibilities of one-quarter mile or less at times
are expected through late Friday morning.

* Impacts... reduced visibility will create hazardous driving
conditions overnight and through Friday morning

Precautionary/preparedness actions...

A dense fog advisory means visibilities will frequently be
reduced to less than one quarter mile. If driving, slow down, use
your headlights, and leave plenty of distance ahead of you.